Time;durP1;ratioP1;P1;durP2;ratioP2;P2;SDS_P1;SDS_P2;PMS_P1;PMS_P2;Temp;Humidity;BMP_temperature;BMP_pressure;BME280_temperature;BME280_humidity;BME280_pressure;Samples;Min_cycle;Max_cycle;Signal;HPM_P1;HPM_P2
2023/03/22 00:00:44;;;;;;;0.80;0.15;;;10.20;99.90;;;;;;4999017;28;20050;-80
2023/03/22 00:03:10;;;;;;;0.08;0.08;;;10.20;99.90;;;;;;5014856;28;20042;-80
2023/03/22 00:05:36;;;;;;;1.35;0.45;;;10.20;99.90;;;;;;5015030;28;20046;-80
2023/03/22 00:08:05;;;;;;;2.65;0.20;;;10.30;99.90;;;;;;4999058;28;20050;-80
2023/03/22 00:10:32;;;;;;;0.03;0.03;;;10.30;99.90;;;;;;4982963;28;20291;-80
2023/03/22 00:12:59;;;;;;;0.10;0.10;;;10.30;99.90;;;;;;5014709;28;20081;-80
2023/03/22 00:15:25;;;;;;;0.43;0.20;;;10.30;99.90;;;;;;4998276;28;20053;-80
2023/03/22 00:17:51;;;;;;;0.65;0.20;;;10.30;99.90;;;;;;4999044;28;20046;-80
2023/03/22 00:20:18;;;;;;;0.20;0.00;;;10.30;99.90;;;;;;4997649;28;20137;-80
2023/03/22 00:22:45;;;;;;;0.00;0.00;;;10.30;99.90;;;;;;4997676;28;20042;-80
2023/03/22 00:25:10;;;;;;;0.17;0.17;;;10.30;99.90;;;;;;4982227;28;20406;-80
2023/03/22 00:27:36;;;;;;;0.15;0.05;;;10.30;99.90;;;;;;5014383;28;20046;-80
2023/03/22 00:30:03;;;;;;;0.45;0.28;;;10.30;99.90;;;;;;5014553;28;20053;-80
2023/03/22 00:32:29;;;;;;;0.00;0.00;;;10.20;99.90;;;;;;4998244;28;20092;-80
2023/03/22 00:34:55;;;;;;;0.90;0.10;;;10.10;99.90;;;;;;4998509;28;20054;-80
2023/03/22 00:37:20;;;;;;;0.32;0.32;;;10.10;99.90;;;;;;4998237;28;20054;-79
2023/03/22 00:39:46;;;;;;;2.17;0.52;;;10.10;99.90;;;;;;5014267;28;20050;-80
2023/03/22 00:42:12;;;;;;;0.32;0.30;;;10.10;99.90;;;;;;4997702;28;20046;-80
2023/03/22 00:44:38;;;;;;;0.20;0.20;;;10.10;99.90;;;;;;4982002;28;20180;-80
2023/03/22 00:47:03;;;;;;;0.00;0.00;;;10.00;99.90;;;;;;4998163;28;20508;-80
2023/03/22 00:49:30;;;;;;;0.70;0.22;;;10.00;99.90;;;;;;4997442;28;20536;-80
2023/03/22 00:51:55;;;;;;;0.52;0.10;;;10.00;99.90;;;;;;5013699;28;20049;-80
2023/03/22 00:54:21;;;;;;;0.10;0.10;;;10.00;99.90;;;;;;4997780;28;20056;-80
2023/03/22 00:56:48;;;;;;;0.00;0.00;;;10.00;99.90;;;;;;5013527;28;20065;-80
2023/03/22 00:59:15;;;;;;;0.47;0.47;;;10.00;99.90;;;;;;5013764;28;20049;-80
2023/03/22 01:01:41;;;;;;;0.00;0.00;;;10.00;99.90;;;;;;4997810;28;20045;-80
2023/03/22 01:04:07;;;;;;;0.47;0.28;;;9.90;99.90;;;;;;4997566;28;20046;-80
2023/03/22 01:06:34;;;;;;;0.05;0.00;;;10.00;99.90;;;;;;5014029;28;20046;-80
2023/03/22 01:09:00;;;;;;;0.08;0.00;;;10.00;99.90;;;;;;5013381;28;20581;-81
2023/03/22 01:11:26;;;;;;;0.10;0.10;;;9.90;99.90;;;;;;5013500;28;20081;-80
2023/03/22 01:13:53;;;;;;;0.10;0.00;;;10.00;99.90;;;;;;5013945;28;20050;-80
2023/03/22 01:16:20;;;;;;;1.15;0.20;;;10.00;99.90;;;;;;5013773;28;20046;-81
2023/03/22 01:18:45;;;;;;;2.17;0.90;;;9.90;99.90;;;;;;5013667;28;20038;-81
2023/03/22 01:21:11;;;;;;;0.60;0.55;;;10.00;99.90;;;;;;5013662;28;20048;-81
2023/03/22 01:23:37;;;;;;;0.00;0.00;;;10.00;99.90;;;;;;5012661;28;20045;-80
2023/03/22 01:26:04;;;;;;;0.00;0.00;;;10.00;99.90;;;;;;4997011;28;20398;-81
2023/03/22 01:28:30;;;;;;;0.03;0.03;;;10.00;99.90;;;;;;4997536;28;20444;-80
2023/03/22 01:30:59;;;;;;;0.45;0.30;;;10.00;99.90;;;;;;5013403;28;20038;-80
2023/03/22 01:33:24;;;;;;;1.05;0.52;;;10.00;99.90;;;;;;5012999;28;20068;-80
2023/03/22 01:35:50;;;;;;;0.03;0.00;;;10.00;99.90;;;;;;4997147;28;20482;-80
2023/03/22 01:38:16;;;;;;;0.20;0.20;;;10.00;99.90;;;;;;5013237;28;20100;-80
2023/03/22 01:40:42;;;;;;;0.28;0.28;;;10.00;99.90;;;;;;5013386;28;20053;-81
2023/03/22 01:43:15;;;;;;;0.08;0.00;;;10.00;99.90;;;;;;4996422;28;20458;-81
2023/03/22 01:45:52;;;;;;;0.85;0.10;;;10.00;99.90;;;;;;4980646;28;20055;-80
2023/03/22 01:48:44;;;;;;;1.08;0.00;;;10.00;99.90;;;;;;4996381;28;20072;-80
2023/03/22 01:51:23;;;;;;;0.00;0.00;;;10.00;99.90;;;;;;5012910;28;20060;-81
2023/03/22 01:53:53;;;;;;;0.10;0.10;;;10.00;99.90;;;;;;4996269;28;20042;-81
2023/03/22 01:56:22;;;;;;;0.00;0.00;;;10.00;99.90;;;;;;5013215;28;20050;-80
2023/03/22 01:58:48;;;;;;;0.10;0.10;;;9.90;99.90;;;;;;4996644;28;20045;-80
2023/03/22 02:01:15;;;;;;;0.10;0.10;;;10.00;99.90;;;;;;4996614;28;20049;-81
2023/03/22 02:03:53;;;;;;;0.00;0.00;;;10.00;99.90;;;;;;4996139;28;20046;-81
2023/03/22 02:06:20;;;;;;;0.00;0.00;;;9.90;99.90;;;;;;5013033;28;20050;-80
2023/03/22 02:08:45;;;;;;;0.20;0.20;;;9.90;99.90;;;;;;5012967;28;20125;-80
2023/03/22 02:11:20;;;;;;;2.08;0.65;;;9.90;99.90;;;;;;5013179;28;20538;-80
2023/03/22 02:14:12;;;;;;;4.45;0.30;;;9.90;99.90;;;;;;5012786;28;20126;-80
2023/03/22 02:17:13;;;;;;;0.08;0.00;;;9.90;99.90;;;;;;5013031;28;20069;-81
2023/03/22 02:20:06;;;;;;;0.00;0.00;;;9.90;99.90;;;;;;4983096;28;20406;-80
2023/03/22 02:22:41;;;;;;;0.70;0.57;;;9.90;99.90;;;;;;5012772;28;20054;-80
2023/03/22 02:25:27;;;;;;;0.00;0.00;;;9.80;99.90;;;;;;5013327;28;20042;-80
2023/03/22 02:28:14;;;;;;;0.00;0.00;;;9.80;99.90;;;;;;4996499;28;20136;-81
2023/03/22 02:30:46;;;;;;;0.05;0.05;;;9.90;99.90;;;;;;5012478;28;20502;-80
2023/03/22 02:33:48;;;;;;;0.20;0.00;;;9.80;99.90;;;;;;5012795;28;20455;-80
2023/03/22 02:36:39;;;;;;;0.00;0.00;;;9.80;99.90;;;;;;4996237;28;20049;-80
2023/03/22 02:39:33;;;;;;;0.80;0.17;;;9.90;99.90;;;;;;5013061;28;20049;-81
2023/03/22 02:42:16;;;;;;;0.00;0.00;;;9.80;99.90;;;;;;4996258;28;20051;-81
2023/03/22 02:44:52;;;;;;;0.00;0.00;;;9.90;99.90;;;;;;5015480;28;20053;-80
2023/03/22 02:47:33;;;;;;;0.00;0.00;;;9.90;99.90;;;;;;5000056;28;20050;-81
2023/03/22 02:50:07;;;;;;;0.90;0.20;;;9.90;99.90;;;;;;5016287;28;20057;-80
2023/03/22 02:53:03;;;;;;;;;;;9.90;99.90;;;;;;5000190;28;20058;-80
2023/03/22 02:55:31;;;;;;;0.00;0.00;;;9.90;99.90;;;;;;5007870;28;19921;-81
2023/03/22 02:58:10;;;;;;;0.00;0.00;;;9.90;99.90;;;;;;5016521;28;20045;-81
2023/03/22 03:00:37;;;;;;;0.00;0.00;;;9.90;99.90;;;;;;5017043;28;20053;-80
2023/03/22 03:03:10;;;;;;;1.02;0.50;;;9.90;99.90;;;;;;4983716;28;20129;-80
2023/03/22 03:05:43;;;;;;;0.00;0.00;;;9.90;99.90;;;;;;5016172;28;20046;-80
2023/03/22 03:08:11;;;;;;;1.48;0.38;;;9.90;99.90;;;;;;5015846;28;20041;-80
2023/03/22 03:10:39;;;;;;;0.00;0.00;;;9.90;99.90;;;;;;4999755;28;20084;-80
2023/03/22 03:13:05;;;;;;;0.43;0.28;;;9.90;99.90;;;;;;4999564;28;20060;-81
2023/03/22 03:15:31;;;;;;;0.17;0.10;;;9.90;99.90;;;;;;5016039;28;20045;-80
2023/03/22 03:18:43;;;;;;;0.30;0.20;;;9.90;99.90;;;;;;5015960;28;20061;-80
2023/03/22 03:21:31;;;;;;;0.10;0.10;;;9.90;99.90;;;;;;5015912;28;20053;-80
2023/03/22 03:24:27;;;;;;;0.10;0.00;;;9.90;99.90;;;;;;4998658;28;20085;-80
2023/03/22 03:26:56;;;;;;;0.00;0.00;;;9.90;99.90;;;;;;5015636;28;20053;-81
2023/03/22 03:29:46;;;;;;;0.00;0.00;;;9.90;99.90;;;;;;5015929;28;20068;-80
2023/03/22 03:32:26;;;;;;;0.00;0.00;;;10.00;99.90;;;;;;5015723;28;20108;-80
2023/03/22 03:35:05;;;;;;;0.10;0.00;;;10.00;99.90;;;;;;5015730;28;20046;-81
2023/03/22 03:37:45;;;;;;;0.00;0.00;;;10.00;99.90;;;;;;5016981;28;20053;-80
2023/03/22 03:40:21;;;;;;;0.10;0.10;;;10.00;99.90;;;;;;4999878;28;20064;-80
2023/03/22 03:42:50;;;;;;;0.00;0.00;;;10.00;99.90;;;;;;5015800;28;20038;-81
2023/03/22 03:45:18;;;;;;;0.10;0.00;;;10.00;99.90;;;;;;5015324;28;20045;-80
2023/03/22 03:47:54;;;;;;;0.00;0.00;;;10.00;99.90;;;;;;4982566;28;20068;-80
2023/03/22 03:50:20;;;;;;;0.05;0.05;;;10.00;99.90;;;;;;4999322;28;20398;-81
2023/03/22 03:52:47;;;;;;;0.20;0.20;;;10.00;99.90;;;;;;5014804;28;20097;-80
2023/03/22 03:55:12;;;;;;;0.20;0.00;;;10.00;99.90;;;;;;5014264;28;20545;-80
2023/03/22 03:57:38;;;;;;;0.03;0.03;;;10.00;99.90;;;;;;5015188;28;20099;-80
2023/03/22 04:00:05;;;;;;;0.00;0.00;;;10.00;99.90;;;;;;4966538;28;20076;-80
2023/03/22 04:02:30;;;;;;;0.17;0.00;;;10.00;99.90;;;;;;5014971;28;20053;-80
2023/03/22 04:04:56;;;;;;;0.00;0.00;;;10.00;99.90;;;;;;4999354;28;20054;-81
2023/03/22 04:07:22;;;;;;;0.00;0.00;;;10.10;99.90;;;;;;4998883;28;20490;-80
2023/03/22 04:09:47;;;;;;;0.55;0.32;;;10.10;99.90;;;;;;4998709;28;20053;-80
2023/03/22 04:12:13;;;;;;;0.38;0.38;;;10.10;99.90;;;;;;4998654;28;20092;-80
2023/03/22 04:14:40;;;;;;;0.68;0.08;;;10.10;99.90;;;;;;4998508;28;20482;-80
2023/03/22 04:17:06;;;;;;;0.10;0.10;;;10.10;99.90;;;;;;4982630;28;20056;-80
2023/03/22 04:19:32;;;;;;;0.00;0.00;;;10.10;99.90;;;;;;4982445;28;20050;-80
2023/03/22 04:21:59;;;;;;;0.38;0.38;;;10.20;99.90;;;;;;4998490;28;20046;-80
2023/03/22 04:24:25;;;;;;;0.40;0.28;;;10.20;99.90;;;;;;4981704;28;20054;-79
2023/03/22 04:26:51;;;;;;;0.10;0.10;;;10.20;99.90;;;;;;5014637;28;20135;-81
2023/03/22 04:29:17;;;;;;;0.00;0.00;;;10.20;99.90;;;;;;5014551;28;20076;-79
2023/03/22 04:31:43;;;;;;;2.95;1.27;;;10.30;99.90;;;;;;4998141;28;20503;-81
2023/03/22 04:34:09;;;;;;;0.08;0.05;;;10.20;99.90;;;;;;4982369;28;20054;-80
2023/03/22 04:36:38;;;;;;;0.35;0.30;;;10.20;99.90;;;;;;4998521;28;20087;-80
2023/03/22 04:39:10;;;;;;;1.17;0.35;;;10.30;99.90;;;;;;5014399;28;20368;-81
2023/03/22 04:41:36;;;;;;;0.25;0.25;;;10.30;99.90;;;;;;4998094;28;20050;-80
2023/03/22 04:44:03;;;;;;;0.28;0.28;;;10.30;99.90;;;;;;4997504;28;20054;-80
2023/03/22 04:46:30;;;;;;;0.88;0.15;;;10.20;99.90;;;;;;4998159;28;20049;-81
2023/03/22 04:48:56;;;;;;;0.20;0.20;;;10.20;99.90;;;;;;4997637;28;20071;-81
2023/03/22 04:51:22;;;;;;;0.10;0.10;;;10.20;99.90;;;;;;4981971;28;20509;-80
2023/03/22 04:53:48;;;;;;;0.00;0.00;;;10.20;99.90;;;;;;5013313;28;20490;-80
2023/03/22 04:56:14;;;;;;;0.05;0.05;;;10.20;99.90;;;;;;4997737;28;20073;-80
2023/03/22 04:58:41;;;;;;;3.60;0.10;;;10.20;99.90;;;;;;5013952;28;20549;-80
2023/03/22 05:01:12;;;;;;;0.63;0.60;;;10.20;99.90;;;;;;5013736;28;20510;-80
2023/03/22 05:03:39;;;;;;;0.10;0.10;;;10.20;99.90;;;;;;5013668;28;20042;-80
2023/03/22 05:06:07;;;;;;;2.70;0.90;;;10.20;99.90;;;;;;5014140;28;20397;-80
2023/03/22 05:08:33;;;;;;;1.23;0.43;;;10.20;99.90;;;;;;5013540;28;20053;-80
2023/03/22 05:11:12;;;;;;;0.45;0.20;;;10.20;99.90;;;;;;5013573;28;20053;-80
2023/03/22 05:13:38;;;;;;;2.08;0.73;;;10.20;99.90;;;;;;5013899;28;20482;-80
2023/03/22 05:16:05;;;;;;;3.38;0.60;;;10.20;99.90;;;;;;4997733;28;20054;-80
2023/03/22 05:18:31;;;;;;;0.32;0.15;;;10.20;99.90;;;;;;5013311;28;20523;-80
2023/03/22 05:20:58;;;;;;;0.03;0.00;;;10.20;99.90;;;;;;5013656;28;20124;-80
2023/03/22 05:23:24;;;;;;;0.20;0.20;;;10.20;99.90;;;;;;5012705;28;20065;-80
2023/03/22 05:25:53;;;;;;;0.00;0.00;;;10.20;99.90;;;;;;5013335;28;20513;-80
2023/03/22 05:28:21;;;;;;;0.30;0.20;;;10.20;99.90;;;;;;4981640;28;20049;-80
2023/03/22 05:30:47;;;;;;;0.20;0.00;;;10.20;99.90;;;;;;4997322;28;20057;-81
2023/03/22 05:33:15;;;;;;;0.40;0.40;;;10.20;99.90;;;;;;5013490;28;20394;-80
2023/03/22 05:35:42;;;;;;;0.15;0.15;;;10.20;99.90;;;;;;5013287;28;20056;-80
2023/03/22 05:38:09;;;;;;;1.10;0.95;;;10.20;99.90;;;;;;4996977;28;20399;-80
2023/03/22 05:40:35;;;;;;;0.00;0.00;;;10.20;99.90;;;;;;4997031;28;20062;-80
2023/03/22 05:43:00;;;;;;;10.05;1.48;;;10.10;99.90;;;;;;4996859;28;20126;-80
2023/03/22 05:45:26;;;;;;;0.47;0.47;;;10.20;99.90;;;;;;4997002;28;20046;-80
2023/03/22 05:47:52;;;;;;;0.28;0.28;;;10.10;99.90;;;;;;5014585;28;20053;-80
2023/03/22 05:50:20;;;;;;;0.00;0.00;;;10.20;99.90;;;;;;5053777;28;20088;-80
2023/03/22 05:52:47;;;;;;;0.20;0.10;;;10.10;99.90;;;;;;5035424;28;20127;-81
2023/03/22 05:55:16;;;;;;;0.20;0.20;;;10.20;99.90;;;;;;5019721;28;20048;-80
2023/03/22 05:57:42;;;;;;;0.00;0.00;;;10.20;99.90;;;;;;5019660;28;20448;-80
2023/03/22 06:00:12;;;;;;;3.70;0.65;;;10.20;99.90;;;;;;5035909;28;20447;-80
2023/03/22 06:02:39;;;;;;;0.00;0.00;;;10.20;99.90;;;;;;5035958;28;20052;-80
2023/03/22 06:05:06;;;;;;;0.38;0.10;;;10.20;99.90;;;;;;5019268;28;20048;-80
2023/03/22 06:07:31;;;;;;;0.08;0.08;;;10.20;99.90;;;;;;5019288;28;20045;-81
2023/03/22 06:09:57;;;;;;;3.10;0.30;;;10.20;99.90;;;;;;5008488;28;20055;-81
2023/03/22 06:12:24;;;;;;;0.32;0.25;;;10.20;99.90;;;;;;5052641;28;20052;-81
2023/03/22 06:14:50;;;;;;;2.45;1.00;;;10.20;99.90;;;;;;5035943;28;20049;-80
2023/03/22 06:17:17;;;;;;;0.10;0.00;;;10.20;99.90;;;;;;5019467;28;20095;-80
2023/03/22 06:19:42;;;;;;;1.23;0.43;;;10.20;99.90;;;;;;5051829;28;20103;-80
2023/03/22 06:22:08;;;;;;;0.03;0.03;;;10.20;99.90;;;;;;5052385;28;20048;-80
2023/03/22 06:24:34;;;;;;;0.20;0.20;;;10.20;99.90;;;;;;5051912;28;20089;-80
2023/03/22 06:26:59;;;;;;;4.68;0.10;;;10.20;99.90;;;;;;5053344;28;20045;-80
2023/03/22 06:29:26;;;;;;;0.17;0.10;;;10.20;99.90;;;;;;5019307;28;20087;-80
2023/03/22 06:31:51;;;;;;;3.33;0.17;;;10.20;99.90;;;;;;5035646;28;20053;-80
2023/03/22 06:34:17;;;;;;;0.20;0.10;;;10.30;99.90;;;;;;5019289;28;20037;-79
2023/03/22 06:36:43;;;;;;;0.20;0.20;;;10.30;99.90;;;;;;5035512;28;20444;-79
2023/03/22 06:39:09;;;;;;;1.45;0.88;;;10.20;99.90;;;;;;5019711;28;20041;-79
2023/03/22 06:41:34;;;;;;;0.50;0.25;;;10.20;99.90;;;;;;5035697;28;20052;-79
2023/03/22 06:44:01;;;;;;;0.10;0.10;;;10.20;99.90;;;;;;5051956;28;20079;-79
2023/03/22 06:46:27;;;;;;;0.00;0.00;;;10.20;99.90;;;;;;5035518;28;20079;-80
2023/03/22 06:48:53;;;;;;;0.88;0.75;;;10.30;99.90;;;;;;5032104;28;20108;-80
2023/03/22 06:51:19;;;;;;;0.65;0.15;;;10.30;99.90;;;;;;5001573;28;20515;-80
2023/03/22 06:53:45;;;;;;;0.00;0.00;;;10.40;99.90;;;;;;4997637;28;20037;-82
2023/03/22 06:56:10;;;;;;;2.58;0.95;;;10.50;99.90;;;;;;5051070;28;20057;-81
2023/03/22 06:58:36;;;;;;;0.00;0.00;;;10.60;99.90;;;;;;5019489;28;20053;-80
2023/03/22 07:01:02;;;;;;;0.15;0.15;;;10.70;99.90;;;;;;5051131;28;20056;-81
2023/03/22 07:03:28;;;;;;;0.00;0.00;;;11.00;99.90;;;;;;5019096;28;20089;-79
2023/03/22 07:06:03;;;;;;;0.10;0.10;;;11.40;99.90;;;;;;5018210;28;20037;-79
2023/03/22 07:08:29;;;;;;;0.00;0.00;;;11.60;99.90;;;;;;5027621;28;20502;-80
2023/03/22 07:10:55;;;;;;;0.25;0.25;;;11.60;99.90;;;;;;5029806;28;20124;-80
2023/03/22 07:13:21;;;;;;;0.00;0.00;;;11.60;99.90;;;;;;5016050;28;20127;-80
2023/03/22 07:15:47;;;;;;;0.10;0.10;;;11.50;99.90;;;;;;5001917;28;20045;-82
2023/03/22 07:18:13;;;;;;;0.00;0.00;;;11.50;99.90;;;;;;5018536;28;20461;-83
2023/03/22 07:20:40;;;;;;;0.00;0.00;;;11.40;99.90;;;;;;5018684;28;20131;-86
2023/03/22 07:23:11;;;;;;;0.00;0.00;;;11.40;99.90;;;;;;5018462;28;20617;-87
2023/03/22 07:25:37;;;;;;;0.22;0.22;;;11.40;99.90;;;;;;5019162;28;20136;-86
2023/03/22 07:28:03;;;;;;;0.00;0.00;;;11.40;99.90;;;;;;5018917;28;20136;-83
2023/03/22 07:30:29;;;;;;;0.35;0.35;;;11.40;99.90;;;;;;5036250;28;20041;-86
2023/03/22 07:32:54;;;;;;;0.00;0.00;;;11.40;99.90;;;;;;5006023;28;20037;-86
2023/03/22 07:35:20;;;;;;;0.00;0.00;;;11.30;99.90;;;;;;5022119;28;20048;-83
2023/03/22 07:37:47;;;;;;;0.98;0.30;;;11.30;99.90;;;;;;4989689;28;20370;-80
2023/03/22 07:40:14;;;;;;;0.10;0.10;;;11.30;99.90;;;;;;5022220;28;20098;-80
2023/03/22 07:42:39;;;;;;;9.73;1.00;;;11.30;99.90;;;;;;5005565;28;20076;-80
2023/03/22 07:45:06;;;;;;;0.00;0.00;;;11.30;99.90;;;;;;5038558;28;20095;-80
2023/03/22 07:47:31;;;;;;;0.10;0.10;;;11.40;99.90;;;;;;5038373;28;20059;-81
2023/03/22 07:49:57;;;;;;;0.00;0.00;;;11.50;99.90;;;;;;5037961;28;20056;-80
2023/03/22 07:52:23;;;;;;;0.10;0.10;;;11.70;99.90;;;;;;5037742;28;20080;-81
2023/03/22 07:54:49;;;;;;;0.10;0.00;;;11.80;99.90;;;;;;5021676;28;20374;-80
2023/03/22 07:57:15;;;;;;;0.50;0.40;;;11.90;99.90;;;;;;5021914;28;20118;-80
2023/03/22 07:59:43;;;;;;;0.17;0.17;;;12.00;99.90;;;;;;5021676;28;20094;-80
2023/03/22 08:02:10;;;;;;;1.88;0.95;;;12.00;99.90;;;;;;5021424;28;20056;-80
2023/03/22 08:04:35;;;;;;;0.00;0.00;;;12.00;99.90;;;;;;5038030;28;20060;-80
2023/03/22 08:07:01;;;;;;;0.00;0.00;;;11.90;99.90;;;;;;5005280;28;20041;-80
2023/03/22 08:09:27;;;;;;;0.10;0.10;;;11.80;99.90;;;;;;5037881;28;20049;-80
2023/03/22 08:11:52;;;;;;;2.20;0.47;;;11.80;99.90;;;;;;5021498;28;20045;-80
2023/03/22 08:14:18;;;;;;;3.42;0.32;;;11.70;99.90;;;;;;5005119;28;20076;-80
2023/03/22 08:16:45;;;;;;;0.00;0.00;;;11.70;99.90;;;;;;5037580;28;20122;-81
2023/03/22 08:19:11;;;;;;;0.75;0.40;;;11.60;99.90;;;;;;5021312;28;20415;-80
2023/03/22 08:21:46;;;;;;;0.00;0.00;;;11.60;99.90;;;;;;5037992;28;20044;-80
2023/03/22 08:24:12;;;;;;;0.63;0.22;;;11.60;99.90;;;;;;5037072;28;20084;-80
2023/03/22 08:26:38;;;;;;;0.10;0.10;;;11.60;99.90;;;;;;5037760;28;20095;-80
2023/03/22 08:29:03;;;;;;;0.00;0.00;;;11.60;99.90;;;;;;5004936;28;20045;-80
2023/03/22 08:31:30;;;;;;;0.00;0.00;;;11.60;99.90;;;;;;5037455;28;20049;-80
2023/03/22 08:33:57;;;;;;;0.00;0.00;;;11.60;99.90;;;;;;5021207;28;20140;-80
2023/03/22 08:36:22;;;;;;;0.00;0.00;;;11.60;99.90;;;;;;5037583;28;20053;-80
2023/03/22 08:38:48;;;;;;;0.00;0.00;;;11.70;99.90;;;;;;5004709;28;20370;-81
2023/03/22 08:41:14;;;;;;;0.10;0.03;;;11.70;99.90;;;;;;5019433;28;20128;-81
2023/03/22 08:43:41;;;;;;;0.28;0.28;;;11.80;99.90;;;;;;5036976;28;20106;-83
2023/03/22 08:46:07;;;;;;;0.00;0.00;;;11.80;99.90;;;;;;5036253;28;20049;-81
2023/03/22 08:48:36;;;;;;;0.13;0.13;;;11.70;99.90;;;;;;5037032;28;20080;-81
2023/03/22 08:51:03;;;;;;;0.17;0.17;;;11.70;99.90;;;;;;5037518;28;20546;-81
2023/03/22 08:53:30;;;;;;;0.35;0.00;;;11.80;99.90;;;;;;5036860;28;20489;-81
2023/03/22 08:55:56;;;;;;;0.00;0.00;;;11.80;99.90;;;;;;5020464;28;20485;-82
2023/03/22 08:58:23;;;;;;;0.00;0.00;;;11.90;99.90;;;;;;5036965;28;20059;-81
2023/03/22 09:00:49;;;;;;;0.00;0.00;;;11.80;99.90;;;;;;5036928;28;20088;-81
2023/03/22 09:03:15;;;;;;;0.00;0.00;;;11.80;99.90;;;;;;5036792;28;20077;-80
2023/03/22 09:05:41;;;;;;;0.00;0.00;;;11.80;99.90;;;;;;5036877;28;20551;-80
2023/03/22 09:08:07;;;;;;;0.30;0.30;;;11.80;99.90;;;;;;5036845;28;20049;-80
2023/03/22 09:10:37;;;;;;;0.00;0.00;;;11.90;99.90;;;;;;5036598;28;20461;-81
2023/03/22 09:13:03;;;;;;;1.85;0.35;;;12.10;99.90;;;;;;5036573;28;20057;-80
2023/03/22 09:15:29;;;;;;;0.90;0.15;;;12.30;99.90;;;;;;5054344;28;20480;-81
2023/03/22 09:17:55;;;;;;;0.00;0.00;;;12.50;99.90;;;;;;5054298;28;20092;-81
2023/03/22 09:20:24;;;;;;;0.00;0.00;;;12.50;99.90;;;;;;5020381;28;20126;-81
2023/03/22 09:22:50;;;;;;;0.00;0.00;;;12.60;99.90;;;;;;5035688;28;20378;-81
2023/03/22 09:25:16;;;;;;;0.10;0.10;;;12.60;99.90;;;;;;5036710;28;20399;-80
2023/03/22 09:27:42;;;;;;;0.08;0.08;;;12.50;99.90;;;;;;5054066;28;20127;-80
2023/03/22 09:30:08;;;;;;;0.00;0.00;;;12.50;99.90;;;;;;5019991;28;20131;-80
2023/03/22 09:32:34;;;;;;;0.20;0.03;;;12.50;99.90;;;;;;5054171;28;20119;-80
2023/03/22 09:35:00;;;;;;;0.00;0.00;;;12.50;99.90;;;;;;5020153;28;20544;-80
2023/03/22 09:37:29;;;;;;;0.00;0.00;;;12.50;99.90;;;;;;5036513;28;20137;-80
2023/03/22 09:39:56;;;;;;;0.00;0.00;;;12.50;99.90;;;;;;5020165;28;20053;-80
2023/03/22 09:42:36;;;;;;;0.00;0.00;;;12.50;99.90;;;;;;5019909;28;20131;-80
2023/03/22 09:45:05;;;;;;;0.22;0.20;;;12.50;99.90;;;;;;5036155;28;20055;-80
2023/03/22 09:47:40;;;;;;;0.00;0.00;;;12.50;99.90;;;;;;5036246;28;20045;-80
2023/03/22 09:50:18;;;;;;;1.38;0.68;;;12.50;99.90;;;;;;5035682;28;20072;-81
2023/03/22 09:52:43;;;;;;;0.20;0.00;;;12.50;99.90;;;;;;5034939;28;20060;-81
2023/03/22 09:55:19;;;;;;;0.00;0.00;;;12.40;99.90;;;;;;5019575;28;20063;-81
2023/03/22 09:57:54;;;;;;;1.35;0.10;;;12.40;99.90;;;;;;5036295;28;20424;-80
2023/03/22 10:00:20;;;;;;;0.30;0.30;;;12.30;99.90;;;;;;5036116;28;20122;-80
2023/03/22 10:02:49;;;;;;;0.10;0.10;;;12.30;99.90;;;;;;5035934;28;20041;-81
2023/03/22 10:05:36;;;;;;;0.13;0.13;;;12.20;99.90;;;;;;5019443;28;20045;-80
2023/03/22 10:08:15;;;;;;;0.15;0.15;;;12.20;99.90;;;;;;5019553;28;20045;-80
2023/03/22 10:10:41;;;;;;;0.30;0.30;;;12.20;99.90;;;;;;5036009;28;20048;-80
2023/03/22 10:13:25;;;;;;;0.00;0.00;;;12.10;99.90;;;;;;5019528;28;20049;-80
2023/03/22 10:15:58;;;;;;;0.00;0.00;;;12.10;99.90;;;;;;5019442;28;20048;-80
2023/03/22 10:18:35;;;;;;;0.05;0.05;;;12.10;99.90;;;;;;5035879;28;20053;-79
2023/03/22 10:21:09;;;;;;;0.00;0.00;;;12.00;99.90;;;;;;5036772;28;20048;-80
2023/03/22 10:23:44;;;;;;;9.25;0.30;;;11.90;99.90;;;;;;5052692;28;20048;-80
2023/03/22 10:26:20;;;;;;;0.32;0.10;;;11.90;99.90;;;;;;5035828;28;20144;-80
2023/03/22 10:28:56;;;;;;;1.35;0.45;;;11.90;99.90;;;;;;5035766;28;20041;-80
2023/03/22 10:31:22;;;;;;;0.93;0.00;;;11.80;99.90;;;;;;5019795;28;20052;-81
2023/03/22 10:33:54;;;;;;;0.15;0.10;;;11.80;99.90;;;;;;5035668;28;20056;-81
2023/03/22 10:36:26;;;;;;;;;;;11.80;99.90;;;;;;5035951;28;20512;-81
2023/03/22 10:38:56;;;;;;;0.00;0.00;;;11.80;99.90;;;;;;5052953;28;20011;-81
2023/03/22 10:41:24;;;;;;;0.17;0.17;;;11.80;99.90;;;;;;5036265;28;20074;-81
2023/03/22 10:44:00;;;;;;;0.00;0.00;;;11.80;99.90;;;;;;5015552;28;20038;-81
2023/03/22 10:46:30;;;;;;;0.28;0.10;;;11.80;99.90;;;;;;5032091;28;20038;-81
2023/03/22 10:48:58;;;;;;;0.80;0.15;;;11.80;99.90;;;;;;5032670;28;20058;-81
2023/03/22 10:51:34;;;;;;;0.38;0.28;;;11.80;99.90;;;;;;5031974;28;20053;-81
2023/03/22 10:54:02;;;;;;;0.00;0.00;;;11.70;99.90;;;;;;5031948;28;20050;-81
2023/03/22 10:56:28;;;;;;;0.10;0.00;;;11.70;99.90;;;;;;5015772;28;20053;-81
2023/03/22 10:58:56;;;;;;;1.38;0.50;;;11.60;99.90;;;;;;4999227;28;20042;-81
2023/03/22 11:01:30;;;;;;;0.00;0.00;;;11.60;99.90;;;;;;5031751;28;20037;-81
2023/03/22 11:04:08;;;;;;;0.10;0.10;;;11.50;99.90;;;;;;5031824;28;20049;-81
2023/03/22 11:06:51;;;;;;;0.00;0.00;;;11.50;99.90;;;;;;5019910;28;20045;-81
2023/03/22 11:09:18;;;;;;;0.00;0.00;;;11.50;99.90;;;;;;5036211;28;20053;-81
2023/03/22 11:11:50;;;;;;;6.93;0.32;;;11.50;99.90;;;;;;5018921;28;20372;-82
2023/03/22 11:14:26;;;;;;;0.35;0.35;;;11.50;99.90;;;;;;5019257;28;20045;-82
2023/03/22 11:16:58;;;;;;;0.30;0.30;;;11.50;99.90;;;;;;5037124;28;20045;-82
2023/03/22 11:19:27;;;;;;;0.10;0.10;;;11.50;99.90;;;;;;5036019;28;20053;-82
2023/03/22 11:21:58;;;;;;;0.10;0.03;;;11.50;99.90;;;;;;5035576;28;20053;-82
2023/03/22 11:24:27;;;;;;;0.00;0.00;;;11.50;99.90;;;;;;5034469;28;20052;-82
2023/03/22 11:27:06;;;;;;;1.73;0.60;;;11.50;99.90;;;;;;5035559;28;20057;-82
2023/03/22 11:29:47;;;;;;;2.53;0.60;;;11.50;99.90;;;;;;5019053;28;20123;-82
2023/03/22 11:32:31;;;;;;;0.00;0.00;;;11.50;99.90;;;;;;5018861;28;20089;-82
2023/03/22 11:35:10;;;;;;;0.00;0.00;;;11.50;99.90;;;;;;5035362;28;20049;-82
2023/03/22 11:37:41;;;;;;;0.00;0.00;;;11.40;99.90;;;;;;5035568;28;20288;-82
2023/03/22 11:40:22;;;;;;;0.20;0.20;;;11.40;99.90;;;;;;5035503;28;20085;-82
2023/03/22 11:42:52;;;;;;;3.85;0.88;;;11.40;99.90;;;;;;5035206;28;20049;-82
2023/03/22 11:45:31;;;;;;;1.45;0.43;;;11.40;99.90;;;;;;5018705;28;20444;-82
2023/03/22 11:48:03;;;;;;;0.00;0.00;;;11.30;99.90;;;;;;5035275;28;20104;-82
2023/03/22 11:50:33;;;;;;;1.15;0.75;;;11.30;99.90;;;;;;5035220;28;20053;-82
2023/03/22 11:53:02;;;;;;;0.00;0.00;;;11.30;99.90;;;;;;5035601;28;20037;-83
2023/03/22 11:55:32;;;;;;;0.10;0.00;;;11.30;99.90;;;;;;5034765;28;20563;-87
2023/03/22 11:57:58;;;;;;;1.20;0.73;;;11.40;99.90;;;;;;5018860;28;20401;-82
2023/03/22 12:00:28;;;;;;;0.00;0.00;;;11.40;99.90;;;;;;5002386;28;20049;-82
2023/03/22 12:03:05;;;;;;;0.00;0.00;;;11.40;99.90;;;;;;5034729;28;20057;-86
2023/03/22 12:05:33;;;;;;;0.35;0.13;;;11.40;99.90;;;;;;5035237;28;20053;-82
2023/03/22 12:08:21;;;;;;;0.10;0.10;;;11.50;99.90;;;;;;5018266;28;20601;-82
2023/03/22 12:10:51;;;;;;;2.40;1.10;;;11.50;99.90;;;;;;5020765;28;20088;-81
2023/03/22 12:13:42;;;;;;;0.80;0.65;;;11.50;99.90;;;;;;5035748;28;20049;-81
2023/03/22 12:16:11;;;;;;;0.00;0.00;;;11.40;99.90;;;;;;5016790;28;20053;-82
2023/03/22 12:19:15;;;;;;;0.00;0.00;;;11.50;99.90;;;;;;5034629;28;20045;-82
2023/03/22 12:21:44;;;;;;;0.00;0.00;;;11.50;99.90;;;;;;4988381;28;20065;-81
2023/03/22 12:24:28;;;;;;;0.38;0.00;;;11.40;99.90;;;;;;5033711;28;20041;-81
2023/03/22 12:26:59;;;;;;;0.10;0.10;;;11.50;99.90;;;;;;5034276;28;20537;-81
2023/03/22 12:29:26;;;;;;;0.00;0.00;;;11.50;99.90;;;;;;5034285;28;20057;-81
2023/03/22 12:32:15;;;;;;;0.05;0.05;;;11.50;99.90;;;;;;5034529;28;20500;-81
2023/03/22 12:34:46;;;;;;;0.15;0.15;;;11.50;99.90;;;;;;5034399;28;20045;-81
2023/03/22 12:37:18;;;;;;;0.38;0.28;;;11.50;99.90;;;;;;5034305;28;20053;-81
2023/03/22 12:39:52;;;;;;;0.00;0.00;;;11.40;99.90;;;;;;5034228;28;20057;-81
2023/03/22 12:42:41;;;;;;;0.60;0.28;;;11.40;99.90;;;;;;5033991;28;20059;-81
2023/03/22 12:45:16;;;;;;;0.00;0.00;;;11.40;99.90;;;;;;5035116;28;20128;-81
2023/03/22 12:47:54;;;;;;;0.00;0.00;;;11.40;99.90;;;;;;5034058;28;20050;-81
2023/03/22 12:50:27;;;;;;;0.00;0.00;;;11.40;99.90;;;;;;5033397;28;20057;-81
2023/03/22 12:52:53;;;;;;;0.00;0.00;;;11.40;99.90;;;;;;5033661;28;20057;-81
2023/03/22 12:55:32;;;;;;;0.38;0.20;;;11.40;99.90;;;;;;5034248;28;20037;-81
2023/03/22 12:57:58;;;;;;;1.38;0.35;;;11.40;99.90;;;;;;5034990;28;20065;-81
2023/03/22 13:00:44;;;;;;;0.10;0.10;;;11.40;99.90;;;;;;5033314;28;20048;-81
2023/03/22 13:03:16;;;;;;;0.00;0.00;;;11.40;99.90;;;;;;5033750;28;20072;-81